LFPM 131330Z AUTO 08006KT 020V120 CAVOK 11/M04 Q1031

Les avions qui composent notre flotte

Avion Robin DR400 2+2

L'avion école par excellence

F-GAVN
   * tarif promotionnel appliqué pendant la formation des élèves non brevetés


F-GAVN Planche